Time;durP1;ratioP1;P1;durP2;ratioP2;P2;SDS_P1;SDS_P2;PMS_P1;PMS_P2;Temp;Humidity;BMP_temperature;BMP_pressure;BME280_temperature;BME280_humidity;BME280_pressure;Samples;Min_cycle;Max_cycle;Signal;HPM_P1;HPM_P2
2022/05/18 00:02:18;;;;;;;1.15;0.90;;;17.70;71.70;;;;;;5114822;28;20031;-76
2022/05/18 00:04:44;;;;;;;0.80;0.73;;;17.60;71.70;;;;;;5096573;28;20047;-77
2022/05/18 00:07:10;;;;;;;1.63;1.00;;;17.60;71.80;;;;;;5114679;28;20082;-76
2022/05/18 00:09:36;;;;;;;1.52;0.90;;;17.60;71.90;;;;;;5114568;28;20047;-76
2022/05/18 00:12:02;;;;;;;0.77;0.73;;;17.50;72.00;;;;;;5112683;28;20043;-77
2022/05/18 00:14:28;;;;;;;2.13;0.80;;;17.50;72.10;;;;;;5114896;28;20040;-76
2022/05/18 00:16:54;;;;;;;0.95;0.80;;;17.50;72.20;;;;;;5114513;28;20066;-76
2022/05/18 00:19:19;;;;;;;0.63;0.60;;;17.40;72.10;;;;;;5114752;28;20088;-77
2022/05/18 00:21:46;;;;;;;1.73;0.80;;;17.40;72.20;;;;;;5114420;28;20043;-77
2022/05/18 00:24:11;;;;;;;1.23;0.90;;;17.40;72.30;;;;;;5114657;28;20035;-77
2022/05/18 00:26:37;;;;;;;1.98;0.90;;;17.40;72.30;;;;;;5096195;28;20039;-76
2022/05/18 00:29:03;;;;;;;1.38;1.10;;;17.40;72.50;;;;;;5114570;28;20096;-77
2022/05/18 00:31:29;;;;;;;1.17;0.88;;;17.30;72.50;;;;;;5114477;28;20032;-77
2022/05/18 00:33:55;;;;;;;1.73;0.95;;;17.30;72.60;;;;;;5114372;28;20122;-77
2022/05/18 00:36:21;;;;;;;1.83;0.90;;;17.20;72.60;;;;;;5096444;28;20123;-76
2022/05/18 00:38:46;;;;;;;2.30;0.90;;;17.20;72.70;;;;;;5114449;28;20536;-77
2022/05/18 00:41:12;;;;;;;1.10;0.85;;;17.20;72.80;;;;;;5114252;28;20059;-76
2022/05/18 00:43:42;;;;;;;1.23;0.90;;;17.10;72.90;;;;;;5096089;28;20413;-77
2022/05/18 00:46:12;;;;;;;1.67;0.88;;;17.10;73.00;;;;;;5094328;28;20043;-77
2022/05/18 00:48:38;;;;;;;3.08;0.90;;;17.00;73.10;;;;;;5112810;28;20114;-76
2022/05/18 00:51:10;;;;;;;0.68;0.65;;;17.00;73.10;;;;;;5114374;28;20437;-77
2022/05/18 00:53:41;;;;;;;1.10;1.00;;;17.00;73.30;;;;;;5114053;28;20118;-77
2022/05/18 00:56:12;;;;;;;1.38;1.02;;;16.90;73.30;;;;;;5112180;28;20044;-77
2022/05/18 00:58:42;;;;;;;2.45;1.30;;;16.90;73.40;;;;;;5111865;28;20044;-76
2022/05/18 01:01:09;;;;;;;0.98;0.85;;;16.90;74.20;;;;;;5095541;28;20031;-76
2022/05/18 01:03:39;;;;;;;1.15;0.85;;;16.80;73.50;;;;;;5113764;28;20035;-77
2022/05/18 01:06:13;;;;;;;1.65;0.98;;;16.80;73.60;;;;;;5113995;28;20048;-77
2022/05/18 01:08:57;;;;;;;1.88;0.90;;;16.80;73.70;;;;;;5093780;28;20035;-77
2022/05/18 01:11:22;;;;;;;1.35;0.90;;;16.70;73.70;;;;;;5112027;28;20058;-74
2022/05/18 01:13:49;;;;;;;2.00;1.00;;;16.70;73.70;;;;;;5095296;28;20079;-77
2022/05/18 01:16:15;;;;;;;0.77;0.77;;;16.70;73.70;;;;;;5114201;28;20080;-77
2022/05/18 01:18:42;;;;;;;1.25;0.70;;;16.70;73.80;;;;;;5095267;28;20098;-77
2022/05/18 01:21:08;;;;;;;1.52;1.08;;;16.70;73.90;;;;;;5113777;28;20138;-74
2022/05/18 01:23:51;;;;;;;1.70;0.85;;;16.60;73.80;;;;;;5114104;28;20048;-77
2022/05/18 01:26:37;;;;;;;1.25;0.85;;;16.60;73.90;;;;;;5095395;28;20044;-77
2022/05/18 01:29:05;;;;;;;1.95;1.23;;;16.50;73.90;;;;;;5113742;28;20509;-77
2022/05/18 01:31:52;;;;;;;1.85;1.00;;;16.50;74.00;;;;;;5095905;28;20070;-77
2022/05/18 01:34:21;;;;;;;1.52;0.88;;;16.50;74.20;;;;;;5113263;28;20042;-74
2022/05/18 01:36:48;;;;;;;1.55;1.02;;;16.50;74.30;;;;;;5113310;28;20043;-74
2022/05/18 01:39:20;;;;;;;2.55;0.93;;;16.50;74.90;;;;;;5095190;28;20036;-74
2022/05/18 01:41:58;;;;;;;3.25;1.10;;;16.40;74.30;;;;;;5093915;28;20040;-74
2022/05/18 01:44:25;;;;;;;1.70;1.00;;;16.40;74.40;;;;;;5113013;28;20371;-74
2022/05/18 01:46:52;;;;;;;1.40;0.90;;;16.40;74.40;;;;;;5113229;28;20044;-75
2022/05/18 01:49:18;;;;;;;1.80;0.90;;;16.30;74.40;;;;;;5113513;28;20081;-74
2022/05/18 01:51:47;;;;;;;2.42;1.00;;;16.30;74.50;;;;;;5113534;28;20416;-74
2022/05/18 01:54:14;;;;;;;1.27;0.80;;;16.30;74.60;;;;;;5113354;28;20051;-74
2022/05/18 01:56:41;;;;;;;1.20;0.98;;;16.30;74.70;;;;;;5094547;28;20378;-75
2022/05/18 01:59:07;;;;;;;1.08;0.98;;;16.40;74.80;;;;;;5112902;28;20044;-75
2022/05/18 02:01:33;;;;;;;4.13;1.27;;;16.20;74.70;;;;;;5094564;28;20515;-75
2022/05/18 02:03:59;;;;;;;1.88;1.08;;;16.30;74.80;;;;;;5113427;28;20035;-75
2022/05/18 02:06:24;;;;;;;4.68;1.45;;;16.30;74.80;;;;;;5112943;28;20516;-76
2022/05/18 02:08:50;;;;;;;2.10;1.08;;;16.30;74.80;;;;;;5112907;28;20088;-75
2022/05/18 02:11:19;;;;;;;1.65;0.95;;;16.30;74.80;;;;;;5112600;28;20050;-75
2022/05/18 02:13:46;;;;;;;2.65;1.17;;;16.30;74.80;;;;;;5111737;28;20035;-75
2022/05/18 02:16:12;;;;;;;2.95;1.55;;;16.30;74.80;;;;;;5112726;28;20135;-75
2022/05/18 02:18:38;;;;;;;3.13;1.23;;;16.30;74.90;;;;;;5094450;28;20505;-75
2022/05/18 02:21:07;;;;;;;4.40;1.40;;;16.30;75.00;;;;;;5112861;28;20036;-75
2022/05/18 02:23:34;;;;;;;1.63;0.98;;;16.30;75.00;;;;;;5113004;28;20090;-75
2022/05/18 02:26:06;;;;;;;3.50;1.20;;;16.30;75.00;;;;;;5110559;28;20046;-75
2022/05/18 02:28:33;;;;;;;3.88;1.30;;;16.30;75.10;;;;;;5110932;28;20093;-75
2022/05/18 02:30:58;;;;;;;0.85;0.82;;;16.30;75.10;;;;;;5112471;28;20041;-75
2022/05/18 02:33:24;;;;;;;2.40;1.13;;;16.30;75.20;;;;;;5112765;28;20122;-75
2022/05/18 02:35:50;;;;;;;2.58;1.00;;;16.30;75.30;;;;;;5094040;28;20496;-75
2022/05/18 02:38:15;;;;;;;3.30;1.00;;;16.20;75.30;;;;;;5112631;28;20099;-75
2022/05/18 02:40:42;;;;;;;2.08;1.10;;;16.20;75.40;;;;;;5094470;28;20039;-75
2022/05/18 02:43:08;;;;;;;3.22;1.40;;;16.30;75.50;;;;;;5094030;28;20040;-75
2022/05/18 02:45:34;;;;;;;1.40;0.95;;;16.20;75.50;;;;;;5094203;28;20045;-75
2022/05/18 02:48:00;;;;;;;2.88;1.15;;;16.20;75.50;;;;;;5112286;28;20077;-75
2022/05/18 02:50:26;;;;;;;4.63;1.17;;;16.20;75.60;;;;;;5112881;28;20040;-75
2022/05/18 02:52:52;;;;;;;1.33;0.90;;;16.20;75.60;;;;;;5112912;28;20051;-75
2022/05/18 02:58:00;;;;;;;2.38;1.08;;;16.10;75.80;;;;;;5112096;28;20031;-75
2022/05/18 03:00:26;;;;;;;2.63;0.90;;;16.10;75.80;;;;;;5094528;28;20472;-75
2022/05/18 03:02:51;;;;;;;1.63;0.93;;;16.10;75.90;;;;;;5112550;28;20131;-75
2022/05/18 03:05:18;;;;;;;3.40;1.05;;;16.00;75.90;;;;;;5112229;28;20039;-75
2022/05/18 03:07:43;;;;;;;2.03;1.00;;;16.00;76.00;;;;;;5076677;28;20374;-75
2022/05/18 03:10:10;;;;;;;1.45;0.93;;;16.00;76.00;;;;;;5112439;28;20040;-75
2022/05/18 03:12:36;;;;;;;1.00;0.85;;;16.00;76.10;;;;;;5112239;28;20043;-75
2022/05/18 03:15:02;;;;;;;2.10;1.02;;;16.00;76.20;;;;;;5112077;28;20089;-75
2022/05/18 03:17:28;;;;;;;1.88;1.00;;;15.90;76.20;;;;;;5111598;28;20054;-75
2022/05/18 03:19:53;;;;;;;2.67;1.20;;;16.00;76.30;;;;;;5112072;28;20036;-76
2022/05/18 03:25:02;;;;;;;2.25;1.13;;;15.80;76.30;;;;;;5115449;28;20092;-75
2022/05/18 03:27:28;;;;;;;2.83;1.20;;;15.90;76.40;;;;;;5097137;28;20035;-76
2022/05/18 03:29:54;;;;;;;2.92;1.13;;;15.80;76.40;;;;;;5115862;28;20040;-75
2022/05/18 03:32:22;;;;;;;1.58;1.00;;;15.80;76.60;;;;;;5097613;28;20035;-75
2022/05/18 03:34:49;;;;;;;1.25;0.90;;;15.80;76.50;;;;;;5115334;28;20040;-75
2022/05/18 03:37:16;;;;;;;1.05;0.70;;;15.70;76.50;;;;;;5115022;28;20035;-76
2022/05/18 03:39:42;;;;;;;1.50;0.90;;;15.70;76.60;;;;;;5115437;28;20063;-76
2022/05/18 03:42:08;;;;;;;1.73;1.00;;;15.80;76.70;;;;;;5097323;28;20036;-76
2022/05/18 03:44:34;;;;;;;1.17;1.05;;;15.70;76.60;;;;;;5096713;28;20044;-75
2022/05/18 03:47:00;;;;;;;0.98;0.70;;;15.70;76.60;;;;;;5096821;28;20111;-75
2022/05/18 03:49:26;;;;;;;1.38;0.90;;;15.70;76.60;;;;;;5096874;28;20100;-75
2022/05/18 03:51:51;;;;;;;0.70;0.70;;;15.80;76.70;;;;;;5096703;28;20051;-75
2022/05/18 03:54:17;;;;;;;1.92;1.20;;;15.70;76.60;;;;;;5115054;28;20076;-76
2022/05/18 03:56:43;;;;;;;1.15;0.95;;;15.70;76.70;;;;;;5114776;28;20050;-75
2022/05/18 03:59:09;;;;;;;1.67;0.88;;;15.70;76.70;;;;;;5096506;28;20071;-75
2022/05/18 04:01:34;;;;;;;1.50;0.85;;;15.70;76.70;;;;;;5096588;28;20126;-75
2022/05/18 04:04:00;;;;;;;2.42;0.93;;;15.70;76.70;;;;;;5115502;28;20024;-76
2022/05/18 04:06:26;;;;;;;2.67;0.70;;;15.80;76.70;;;;;;5097392;28;20130;-75
2022/05/18 04:08:53;;;;;;;1.75;0.80;;;15.80;76.60;;;;;;5079975;28;20066;-76
2022/05/18 04:11:19;;;;;;;0.77;0.60;;;15.80;76.70;;;;;;5115272;28;20043;-75
2022/05/18 04:13:45;;;;;;;1.05;0.70;;;15.80;76.70;;;;;;5115395;28;20047;-76
2022/05/18 04:16:11;;;;;;;0.85;0.70;;;15.80;76.60;;;;;;5115311;28;20081;-76
2022/05/18 04:18:36;;;;;;;0.60;0.50;;;15.80;76.70;;;;;;5097303;28;20496;-76
2022/05/18 04:21:03;;;;;;;2.05;0.70;;;15.80;76.70;;;;;;5096362;28;20037;-75
2022/05/18 04:23:29;;;;;;;0.60;0.60;;;15.80;76.70;;;;;;5114897;28;20038;-75
2022/05/18 04:25:56;;;;;;;0.90;0.88;;;15.80;76.70;;;;;;5114801;28;20044;-76
2022/05/18 04:28:22;;;;;;;1.33;0.70;;;15.80;76.70;;;;;;5114702;28;20051;-76
2022/05/18 04:30:49;;;;;;;0.80;0.80;;;15.80;76.70;;;;;;5114840;28;20042;-76
2022/05/18 04:33:19;;;;;;;0.85;0.70;;;15.80;76.70;;;;;;5114824;28;20096;-75
2022/05/18 04:35:48;;;;;;;1.98;0.73;;;15.90;76.70;;;;;;5112339;28;20123;-75
2022/05/18 04:38:14;;;;;;;0.50;0.50;;;15.90;76.70;;;;;;5096666;28;20043;-76
2022/05/18 04:40:40;;;;;;;1.13;0.90;;;15.90;76.70;;;;;;5114463;28;20043;-75
2022/05/18 04:43:06;;;;;;;0.60;0.60;;;15.90;76.70;;;;;;5114693;28;20032;-76
2022/05/18 04:45:32;;;;;;;0.70;0.70;;;15.90;76.60;;;;;;5114811;28;20109;-75
2022/05/18 04:47:58;;;;;;;1.75;0.75;;;16.10;76.70;;;;;;5079347;28;20036;-75
2022/05/18 04:50:24;;;;;;;1.20;0.73;;;16.10;76.50;;;;;;5114188;28;20127;-76
2022/05/18 04:52:50;;;;;;;0.52;0.52;;;16.20;76.30;;;;;;5114340;28;20485;-76
2022/05/18 04:55:16;;;;;;;0.63;0.63;;;16.30;76.20;;;;;;5114568;28;20381;-75
2022/05/18 04:57:42;;;;;;;0.75;0.63;;;16.40;76.10;;;;;;5114240;28;20039;-76
2022/05/18 05:00:11;;;;;;;0.60;0.50;;;16.50;76.00;;;;;;5114390;28;20112;-76
2022/05/18 05:02:38;;;;;;;0.88;0.60;;;16.50;75.90;;;;;;5114124;28;20039;-76
2022/05/18 05:05:07;;;;;;;0.45;0.45;;;16.60;75.90;;;;;;5114164;28;20092;-76
2022/05/18 05:07:33;;;;;;;0.85;0.70;;;16.60;75.90;;;;;;5095804;28;20067;-78
2022/05/18 05:09:59;;;;;;;0.77;0.60;;;16.60;75.90;;;;;;5096215;28;20082;-77
2022/05/18 05:12:26;;;;;;;0.70;0.70;;;16.60;75.90;;;;;;5114172;28;20036;-77
2022/05/18 05:14:52;;;;;;;1.02;0.60;;;16.70;75.90;;;;;;5079265;28;20074;-77
2022/05/18 05:17:18;;;;;;;1.00;0.63;;;16.70;75.90;;;;;;5095892;28;20040;-77
2022/05/18 05:19:43;;;;;;;0.70;0.68;;;16.80;75.90;;;;;;5079523;28;20385;-76
2022/05/18 05:22:09;;;;;;;0.50;0.50;;;16.80;75.80;;;;;;5095564;28;20043;-77
2022/05/18 05:24:35;;;;;;;0.60;0.60;;;16.90;75.70;;;;;;5113790;28;20036;-77
2022/05/18 05:27:01;;;;;;;0.85;0.68;;;17.00;75.80;;;;;;5095333;28;20059;-77
2022/05/18 05:29:27;;;;;;;0.52;0.52;;;17.00;75.70;;;;;;5113505;28;20066;-77
2022/05/18 05:31:53;;;;;;;0.80;0.70;;;17.10;75.60;;;;;;5078144;28;20043;-76
2022/05/18 05:34:19;;;;;;;0.73;0.70;;;17.20;75.60;;;;;;5095299;28;20035;-76
2022/05/18 05:36:44;;;;;;;0.73;0.70;;;17.20;75.50;;;;;;5095774;28;20492;-76
2022/05/18 05:39:10;;;;;;;0.45;0.45;;;17.20;75.40;;;;;;5113629;28;20042;-74
2022/05/18 05:41:36;;;;;;;0.63;0.63;;;17.30;75.30;;;;;;5095207;28;20066;-75
2022/05/18 05:44:03;;;;;;;0.60;0.60;;;17.40;75.20;;;;;;5095787;28;20028;-75
2022/05/18 05:46:28;;;;;;;0.50;0.50;;;17.50;75.20;;;;;;5112951;28;20055;-75
2022/05/18 05:48:55;;;;;;;1.00;0.60;;;17.50;75.10;;;;;;5113402;28;20493;-74
2022/05/18 05:51:23;;;;;;;0.88;0.70;;;17.70;75.20;;;;;;5111575;28;20043;-75
2022/05/18 05:53:51;;;;;;;1.23;0.80;;;17.60;75.00;;;;;;5078607;28;20456;-74
2022/05/18 05:56:18;;;;;;;1.33;0.93;;;17.70;75.00;;;;;;5113813;28;20074;-77
2022/05/18 05:58:45;;;;;;;0.70;0.70;;;17.80;75.10;;;;;;5113444;28;20042;-76
2022/05/18 06:01:12;;;;;;;1.27;0.93;;;17.90;75.00;;;;;;5095278;28;20039;-76
2022/05/18 06:03:40;;;;;;;0.60;0.60;;;17.90;74.80;;;;;;5077807;28;20036;-75
2022/05/18 06:06:08;;;;;;;1.88;0.70;;;18.10;74.70;;;;;;5095074;28;20430;-76
2022/05/18 06:08:34;;;;;;;0.70;0.70;;;18.20;74.70;;;;;;5113081;28;20043;-77
2022/05/18 06:11:00;;;;;;;0.73;0.73;;;18.30;74.50;;;;;;5112897;28;20500;-76
2022/05/18 06:13:27;;;;;;;1.00;0.95;;;18.50;74.20;;;;;;5113056;28;20077;-77
2022/05/18 06:15:53;;;;;;;0.50;0.50;;;18.60;73.90;;;;;;5113762;28;20043;-77
2022/05/18 06:18:19;;;;;;;1.10;0.77;;;18.80;73.70;;;;;;5112955;28;20125;-77
2022/05/18 06:20:47;;;;;;;0.60;0.60;;;18.90;73.50;;;;;;5094666;28;20074;-77
2022/05/18 06:23:14;;;;;;;0.63;0.60;;;19.10;73.30;;;;;;5113314;28;20032;-76
2022/05/18 06:25:40;;;;;;;1.15;0.80;;;19.20;73.10;;;;;;5095210;28;20043;-77
2022/05/18 06:28:07;;;;;;;0.90;0.70;;;19.30;73.70;;;;;;5113320;28;20036;-73
2022/05/18 06:30:33;;;;;;;1.58;0.98;;;19.40;72.90;;;;;;5113655;28;20043;-74
2022/05/18 06:32:59;;;;;;;1.30;0.80;;;19.50;72.70;;;;;;5115852;28;20089;-74
2022/05/18 06:35:25;;;;;;;0.80;0.80;;;19.60;72.40;;;;;;5060987;28;20070;-74
2022/05/18 06:37:51;;;;;;;1.20;0.85;;;19.80;72.20;;;;;;5115027;28;20489;-73
2022/05/18 06:40:17;;;;;;;1.70;0.90;;;19.90;71.90;;;;;;5112777;28;20085;-73
2022/05/18 06:42:44;;;;;;;0.90;0.80;;;20.00;71.70;;;;;;5112465;28;20505;-72
2022/05/18 06:45:11;;;;;;;1.75;0.90;;;20.10;71.50;;;;;;5077810;28;20127;-71
2022/05/18 06:47:37;;;;;;;1.45;0.80;;;20.20;71.40;;;;;;5113246;28;20044;-73
2022/05/18 06:50:06;;;;;;;1.33;0.93;;;20.30;71.30;;;;;;5094637;28;20127;-71
2022/05/18 06:52:32;;;;;;;1.27;1.00;;;20.60;71.10;;;;;;5113847;28;20043;-74
2022/05/18 06:54:58;;;;;;;1.08;0.90;;;20.70;70.90;;;;;;5095381;28;20039;-74
2022/05/18 06:57:23;;;;;;;1.17;1.02;;;20.80;70.50;;;;;;5115167;28;20489;-74
2022/05/18 06:59:49;;;;;;;1.33;1.20;;;20.80;70.20;;;;;;5083848;28;20043;-74
2022/05/18 07:02:15;;;;;;;2.63;1.42;;;20.90;70.10;;;;;;5100559;28;20028;-74
2022/05/18 07:04:41;;;;;;;1.08;1.00;;;21.00;70.10;;;;;;5116926;28;20366;-74
2022/05/18 07:07:07;;;;;;;1.40;1.20;;;20.90;70.10;;;;;;5097670;28;20119;-74
2022/05/18 07:09:33;;;;;;;0.77;0.77;;;20.90;70.20;;;;;;5116060;28;20044;-72
2022/05/18 07:11:59;;;;;;;1.98;1.17;;;21.00;70.30;;;;;;5115903;28;20416;-72
2022/05/18 07:14:27;;;;;;;2.25;1.35;;;21.00;70.30;;;;;;5115672;28;20036;-72
2022/05/18 07:16:54;;;;;;;2.38;1.60;;;21.00;70.30;;;;;;5115533;28;20052;-72
2022/05/18 07:19:20;;;;;;;2.88;1.33;;;21.00;70.20;;;;;;5097453;28;20497;-71
2022/05/18 07:21:47;;;;;;;1.42;1.10;;;21.00;70.20;;;;;;5115768;28;20100;-71
2022/05/18 07:24:14;;;;;;;1.83;1.10;;;21.10;70.20;;;;;;5115967;28;20032;-72
2022/05/18 07:26:40;;;;;;;2.45;1.30;;;21.20;70.20;;;;;;5115490;28;20048;-73
2022/05/18 07:29:06;;;;;;;1.35;1.25;;;21.20;70.10;;;;;;5116272;28;20048;-73
2022/05/18 07:32:08;;;;;;;1.80;1.52;;;21.30;70.00;;;;;;5115682;28;20125;-74
2022/05/18 07:34:18;;;;;;;1.70;1.38;;;21.40;69.90;;;;;;5107406;28;20040;-74
2022/05/18 07:36:44;;;;;;;1.50;1.38;;;21.50;69.70;;;;;;5103414;28;20101;-73
2022/05/18 07:39:11;;;;;;;2.00;1.40;;;21.50;69.60;;;;;;5100907;28;20061;-74
2022/05/18 07:41:38;;;;;;;1.88;1.35;;;21.60;69.40;;;;;;5116673;28;20397;-74
2022/05/18 07:44:04;;;;;;;2.70;1.40;;;21.70;69.40;;;;;;5119309;28;20040;-76
2022/05/18 07:46:30;;;;;;;2.60;1.60;;;21.60;69.20;;;;;;5117033;28;20512;-75
2022/05/18 07:48:56;;;;;;;1.58;1.33;;;21.80;69.30;;;;;;5097909;28;20081;-75
2022/05/18 07:51:22;;;;;;;1.58;1.30;;;21.80;69.20;;;;;;5116903;28;20043;-74
2022/05/18 07:53:47;;;;;;;1.27;1.13;;;21.70;69.10;;;;;;5100132;28;20104;-74
2022/05/18 07:56:14;;;;;;;2.58;1.23;;;21.90;69.20;;;;;;5119803;28;20073;-75
2022/05/18 07:58:40;;;;;;;2.08;1.50;;;21.90;69.30;;;;;;5123412;28;20088;-77
2022/05/18 08:01:08;;;;;;;1.58;1.40;;;21.90;69.40;;;;;;5128022;28;20385;-77
2022/05/18 08:03:34;;;;;;;2.03;1.38;;;21.90;69.40;;;;;;5120370;28;20477;-74
2022/05/18 08:06:00;;;;;;;1.98;1.58;;;22.00;69.60;;;;;;5117780;28;20048;-75
2022/05/18 08:08:26;;;;;;;2.33;1.48;;;22.10;69.40;;;;;;5116236;28;20081;-74
2022/05/18 08:16:10;;;;;;;3.08;1.67;;;22.80;68.10;;;;;;5117817;28;20039;-73
2022/05/18 08:18:36;;;;;;;2.60;1.55;;;23.00;67.70;;;;;;5118445;28;20036;-75
2022/05/18 08:21:02;;;;;;;4.07;1.65;;;23.10;67.40;;;;;;5063999;28;20111;-75
2022/05/18 08:23:28;;;;;;;2.70;1.73;;;23.20;67.10;;;;;;5118877;28;20036;-74
2022/05/18 08:25:56;;;;;;;2.00;1.48;;;23.30;67.10;;;;;;5120073;28;20121;-76
2022/05/18 08:28:22;;;;;;;2.03;1.50;;;23.50;67.10;;;;;;5099861;28;20043;-74
2022/05/18 08:30:48;;;;;;;1.77;1.38;;;23.50;67.10;;;;;;5085761;28;20039;-74
2022/05/18 08:33:14;;;;;;;2.20;1.40;;;23.60;67.10;;;;;;5123603;28;20158;-75
2022/05/18 08:35:43;;;;;;;2.95;1.80;;;23.70;66.90;;;;;;5122151;28;20062;-75
2022/05/18 08:38:10;;;;;;;2.28;1.70;;;23.90;66.70;;;;;;5120421;28;20043;-75
2022/05/18 08:40:40;;;;;;;2.58;1.70;;;24.00;66.60;;;;;;5126215;28;20071;-77
2022/05/18 08:43:09;;;;;;;3.50;1.70;;;24.10;66.50;;;;;;5127263;28;20542;-76
2022/05/18 08:45:38;;;;;;;3.55;2.00;;;24.10;66.50;;;;;;5098109;28;20133;-74
2022/05/18 08:48:32;;;;;;;2.53;1.63;;;24.00;66.50;;;;;;5098503;28;20042;-75
2022/05/18 08:51:08;;;;;;;3.38;1.85;;;24.10;66.70;;;;;;5117960;28;20043;-75
2022/05/18 08:54:00;;;;;;;2.05;1.65;;;24.20;66.80;;;;;;5098673;28;20048;-74
2022/05/18 08:56:31;;;;;;;2.53;1.80;;;24.40;66.50;;;;;;5104394;28;20047;-75
2022/05/18 08:58:59;;;;;;;2.55;1.75;;;24.60;66.40;;;;;;5099571;28;20038;-74
2022/05/18 09:01:36;;;;;;;2.22;1.73;;;24.70;66.00;;;;;;5084393;28;20512;-75
2022/05/18 09:04:13;;;;;;;2.17;1.50;;;24.90;65.60;;;;;;5123426;28;20042;-76
2022/05/18 09:06:47;;;;;;;2.50;1.60;;;24.90;65.60;;;;;;5104613;28;20040;-74
2022/05/18 09:12:05;;;;;;;1.30;1.20;;;25.10;65.80;;;;;;5114123;28;20044;-73
2022/05/18 09:14:37;;;;;;;1.63;1.25;;;25.20;65.70;;;;;;5116089;28;20047;-73
2022/05/18 09:17:26;;;;;;;1.73;1.45;;;25.30;65.60;;;;;;5098690;28;20047;-74
2022/05/18 09:20:18;;;;;;;1.65;1.45;;;25.50;65.30;;;;;;5116857;28;20153;-74
2022/05/18 09:23:07;;;;;;;1.83;1.48;;;25.70;65.50;;;;;;5103911;28;20032;-74
2022/05/18 09:25:59;;;;;;;2.25;1.27;;;25.70;65.30;;;;;;5115234;28;20046;-73
2022/05/18 09:28:49;;;;;;;2.13;1.42;;;25.80;65.30;;;;;;5084629;28;20093;-71
2022/05/18 09:31:24;;;;;;;;;;;26.10;65.30;;;;;;5114087;28;20027;-71
2022/05/18 09:34:08;;;;;;;1.20;1.10;;;26.10;65.10;;;;;;5113520;28;19951;-72
2022/05/18 09:37:04;;;;;;;1.50;1.27;;;26.10;65.10;;;;;;5096981;28;20126;-72
2022/05/18 09:39:35;;;;;;;1.20;1.10;;;26.20;65.20;;;;;;5098017;28;20032;-72
2022/05/18 09:42:07;;;;;;;1.42;1.05;;;26.40;65.20;;;;;;5113371;28;20040;-72
2022/05/18 09:45:00;;;;;;;1.60;1.13;;;26.50;65.10;;;;;;5113469;28;20032;-72
2022/05/18 09:47:29;;;;;;;1.90;1.05;;;26.60;65.60;;;;;;5114048;28;20058;-72
2022/05/18 09:50:00;;;;;;;3.35;1.48;;;26.70;64.70;;;;;;5113407;28;20043;-72
2022/05/18 09:52:28;;;;;;;2.03;1.50;;;26.70;64.50;;;;;;5113589;28;20093;-72
2022/05/18 09:54:57;;;;;;;2.10;1.63;;;26.70;64.40;;;;;;5094721;28;20580;-72
2022/05/18 09:57:31;;;;;;;1.85;1.40;;;26.70;64.50;;;;;;5113904;28;20038;-72
2022/05/18 10:00:05;;;;;;;1.70;1.50;;;26.70;64.70;;;;;;5113002;28;20133;-72
2022/05/18 10:07:59;;;;;;;2.00;1.33;;;26.80;64.40;;;;;;5112984;28;20092;-72
2022/05/18 10:10:38;;;;;;;2.00;1.58;;;27.00;64.40;;;;;;5112962;28;20036;-72
2022/05/18 10:13:10;;;;;;;1.45;1.33;;;27.10;63.90;;;;;;5094763;28;20073;-72
2022/05/18 10:15:40;;;;;;;1.73;1.17;;;27.20;63.70;;;;;;5111343;28;20107;-72
2022/05/18 10:18:33;;;;;;;1.77;1.30;;;27.30;63.80;;;;;;5112985;28;20039;-72
2022/05/18 10:21:14;;;;;;;1.98;1.20;;;27.30;63.70;;;;;;5094156;28;20351;-72
2022/05/18 10:24:02;;;;;;;1.17;1.08;;;27.50;63.60;;;;;;5111857;28;20031;-72
2022/05/18 10:26:38;;;;;;;1.30;1.20;;;27.50;63.40;;;;;;5112609;28;20032;-74
2022/05/18 10:29:21;;;;;;;2.38;1.10;;;27.50;63.60;;;;;;5113031;28;20493;-73
2022/05/18 10:32:02;;;;;;;1.20;1.10;;;27.70;63.50;;;;;;5093999;28;20542;-73
2022/05/18 10:34:32;;;;;;;1.48;1.20;;;27.80;63.20;;;;;;5112022;28;20044;-75
2022/05/18 10:37:00;;;;;;;2.08;1.42;;;27.90;63.00;;;;;;5112686;28;20052;-72
2022/05/18 10:39:41;;;;;;;1.60;1.33;;;27.70;62.80;;;;;;5112448;28;20061;-71
2022/05/18 10:42:23;;;;;;;1.13;1.02;;;27.50;63.30;;;;;;5112454;28;20173;-71
2022/05/18 10:44:50;;;;;;;1.15;1.02;;;27.50;63.50;;;;;;5113224;28;20043;-71
2022/05/18 10:47:27;;;;;;;1.83;0.98;;;27.70;63.30;;;;;;5077539;28;20063;-71
2022/05/18 10:50:13;;;;;;;1.08;0.93;;;27.90;62.90;;;;;;5112551;28;20123;-72
2022/05/18 10:52:39;;;;;;;2.30;1.30;;;27.90;62.70;;;;;;5112584;28;20044;-72
2022/05/18 10:55:15;;;;;;;1.42;1.30;;;27.80;62.80;;;;;;5094247;28;20104;-73
2022/05/18 10:58:05;;;;;;;1.75;1.23;;;27.80;62.90;;;;;;5112156;28;20042;-72
2022/05/18 11:00:46;;;;;;;1.48;1.27;;;27.80;62.90;;;;;;5111702;28;20044;-73
2022/05/18 11:03:25;;;;;;;1.60;1.27;;;27.70;62.90;;;;;;5112876;28;20042;-73
2022/05/18 11:05:58;;;;;;;1.15;1.08;;;27.60;63.10;;;;;;5078864;28;20043;-73
2022/05/18 11:08:28;;;;;;;1.05;0.95;;;27.40;63.30;;;;;;5092294;28;20503;-72
2022/05/18 11:11:14;;;;;;;1.52;1.30;;;27.40;63.40;;;;;;5112354;28;20044;-72
2022/05/18 11:14:03;;;;;;;1.95;1.40;;;27.60;63.20;;;;;;5110525;28;20100;-71
2022/05/18 11:16:58;;;;;;;2.30;1.40;;;27.70;62.60;;;;;;5083061;28;20044;-71
2022/05/18 11:19:41;;;;;;;1.30;1.20;;;27.70;62.50;;;;;;5097307;28;20446;-72
2022/05/18 11:22:45;;;;;;;2.40;1.50;;;27.70;62.30;;;;;;5112300;28;20044;-73
2022/05/18 11:25:26;;;;;;;3.05;1.10;;;27.80;62.00;;;;;;5110259;28;20031;-73
2022/05/18 11:28:00;;;;;;;1.27;1.02;;;27.90;61.80;;;;;;5112406;28;20465;-73
2022/05/18 11:30:44;;;;;;;1.48;1.08;;;28.00;61.80;;;;;;5111096;28;20051;-72
2022/05/18 11:33:36;;;;;;;1.92;1.30;;;28.10;61.50;;;;;;5093807;28;20404;-73
2022/05/18 11:36:21;;;;;;;1.42;1.23;;;28.20;61.10;;;;;;5096782;28;20047;-74
2022/05/18 11:39:12;;;;;;;1.20;1.10;;;28.20;60.90;;;;;;5110817;28;20054;-73
2022/05/18 11:41:50;;;;;;;1.65;1.10;;;28.20;61.00;;;;;;5112518;28;20040;-72
2022/05/18 11:44:36;;;;;;;1.40;0.90;;;28.20;61.00;;;;;;5112629;28;20043;-74
2022/05/18 11:47:36;;;;;;;1.45;1.27;;;28.30;60.90;;;;;;5096890;28;20043;-74
2022/05/18 11:50:23;;;;;;;2.15;1.00;;;28.10;61.00;;;;;;5100201;28;20126;-73
2022/05/18 11:53:26;;;;;;;1.40;1.20;;;28.00;61.30;;;;;;5114131;28;20092;-72
2022/05/18 11:56:10;;;;;;;1.10;0.95;;;27.80;61.50;;;;;;5114383;28;20126;-72
2022/05/18 11:59:12;;;;;;;1.80;0.80;;;27.70;61.70;;;;;;5114887;28;20036;-75
2022/05/18 12:01:55;;;;;;;1.73;0.90;;;27.70;61.80;;;;;;5114634;28;20043;-73
2022/05/18 12:04:46;;;;;;;1.42;0.85;;;27.80;61.70;;;;;;5114443;28;20039;-73
2022/05/18 12:07:29;;;;;;;;;;;27.80;61.40;;;;;;5115933;28;20478;-73
2022/05/18 12:10:09;;;;;;;0.80;0.80;;;28.00;61.30;;;;;;5114377;28;20274;-73
2022/05/18 12:12:53;;;;;;;1.10;1.00;;;28.00;60.90;;;;;;5114752;28;20051;-72
2022/05/18 12:15:31;;;;;;;1.60;1.05;;;28.10;60.70;;;;;;5113547;28;20089;-73
2022/05/18 12:18:05;;;;;;;1.13;1.02;;;28.20;60.60;;;;;;5114901;28;20405;-73
2022/05/18 12:20:40;;;;;;;2.17;1.10;;;28.10;60.60;;;;;;5115089;28;20061;-74
2022/05/18 12:23:11;;;;;;;0.90;0.90;;;28.10;60.70;;;;;;5114863;28;20036;-75
2022/05/18 12:25:38;;;;;;;1.45;1.00;;;28.00;60.70;;;;;;5114820;28;20482;-74
2022/05/18 12:28:06;;;;;;;1.27;1.08;;;27.90;60.60;;;;;;5097922;28;20129;-74
2022/05/18 12:30:36;;;;;;;0.98;0.90;;;27.90;60.70;;;;;;5079716;28;20500;-76
2022/05/18 12:33:04;;;;;;;1.63;1.02;;;27.90;60.90;;;;;;5096587;28;20059;-74
2022/05/18 12:35:48;;;;;;;0.80;0.80;;;27.80;61.00;;;;;;5096474;28;20074;-75
2022/05/18 12:38:38;;;;;;;0.73;0.70;;;27.80;61.00;;;;;;5099184;28;20063;-75
2022/05/18 12:41:10;;;;;;;0.90;0.90;;;27.70;61.00;;;;;;5096354;28;20032;-74
2022/05/18 12:43:45;;;;;;;0.98;0.80;;;27.70;60.90;;;;;;5113510;28;20428;-74
2022/05/18 12:46:28;;;;;;;0.70;0.70;;;27.60;61.00;;;;;;5114115;28;20043;-75
2022/05/18 12:48:59;;;;;;;0.98;0.82;;;27.50;60.90;;;;;;5113245;28;20039;-74
2022/05/18 12:51:53;;;;;;;0.68;0.68;;;27.50;61.00;;;;;;5096737;28;20039;-74
2022/05/18 12:54:43;;;;;;;0.95;0.68;;;27.50;61.00;;;;;;5100124;28;20516;-75
2022/05/18 12:57:15;;;;;;;0.98;0.75;;;27.40;60.90;;;;;;5112713;28;20107;-75
2022/05/18 13:00:01;;;;;;;1.05;0.80;;;27.50;61.00;;;;;;5114416;28;20040;-75
2022/05/18 13:02:48;;;;;;;0.70;0.70;;;27.60;60.70;;;;;;5113874;28;20137;-74
2022/05/18 13:05:44;;;;;;;1.48;1.20;;;27.70;60.50;;;;;;5114423;28;20122;-73
2022/05/18 13:08:37;;;;;;;0.70;0.70;;;27.80;60.10;;;;;;5099641;28;20156;-73
2022/05/18 13:11:16;;;;;;;0.80;0.70;;;27.70;60.10;;;;;;5099187;28;20040;-73
2022/05/18 13:14:04;;;;;;;1.27;0.95;;;27.90;60.00;;;;;;5114839;28;20398;-75
2022/05/18 13:17:05;;;;;;;2.28;1.40;;;27.90;59.90;;;;;;5115248;28;20042;-74
2022/05/18 13:19:34;;;;;;;0.90;0.77;;;27.70;59.60;;;;;;5086923;28;20047;-75
2022/05/18 13:22:24;;;;;;;1.30;1.10;;;27.70;60.00;;;;;;5119213;28;20043;-75
2022/05/18 13:24:59;;;;;;;;;;;27.60;60.10;;;;;;5120280;28;20032;-75
2022/05/18 13:27:44;;;;;;;2.28;1.00;;;27.50;60.30;;;;;;5117463;28;20266;-75
2022/05/18 13:30:16;;;;;;;0.77;0.77;;;27.30;60.40;;;;;;5115286;28;20485;-75